sensor_id;sensor_type;location;lat;lon;timestamp;temperature;humidity
11284;DHT22;5698;47.332;11.180;2023-04-15T00:01:50;1.10;99.90
11284;DHT22;5698;47.332;11.180;2023-04-15T00:04:18;1.00;99.90
11284;DHT22;5698;47.332;11.180;2023-04-15T00:06:49;1.00;99.90
11284;DHT22;5698;47.332;11.180;2023-04-15T00:09:19;1.00;99.90
11284;DHT22;5698;47.332;11.180;2023-04-15T00:11:46;1.00;99.90
11284;DHT22;5698;47.332;11.180;2023-04-15T00:14:13;1.00;99.90
11284;DHT22;5698;47.332;11.180;2023-04-15T00:16:40;1.00;99.90
11284;DHT22;5698;47.332;11.180;2023-04-15T00:19:07;1.20;99.90
11284;DHT22;5698;47.332;11.180;2023-04-15T00:21:34;1.00;99.90
11284;DHT22;5698;47.332;11.180;2023-04-15T00:24:01;0.90;99.90
11284;DHT22;5698;47.332;11.180;2023-04-15T00:26:29;1.00;99.90
11284;DHT22;5698;47.332;11.180;2023-04-15T00:28:56;1.10;99.90
11284;DHT22;5698;47.332;11.180;2023-04-15T00:31:23;1.00;99.90
11284;DHT22;5698;47.332;11.180;2023-04-15T00:33:50;1.00;99.90
11284;DHT22;5698;47.332;11.180;2023-04-15T00:36:17;1.00;99.90
11284;DHT22;5698;47.332;11.180;2023-04-15T00:38:44;1.10;99.90
11284;DHT22;5698;47.332;11.180;2023-04-15T00:41:11;1.00;99.90
11284;DHT22;5698;47.332;11.180;2023-04-15T00:43:40;1.00;99.90
11284;DHT22;5698;47.332;11.180;2023-04-15T00:46:07;0.90;99.90
11284;DHT22;5698;47.332;11.180;2023-04-15T00:48:35;0.90;99.90
11284;DHT22;5698;47.332;11.180;2023-04-15T00:51:03;1.00;99.90
11284;DHT22;5698;47.332;11.180;2023-04-15T00:53:31;0.90;99.90
11284;DHT22;5698;47.332;11.180;2023-04-15T00:55:58;0.90;99.90
11284;DHT22;5698;47.332;11.180;2023-04-15T00:58:26;1.00;99.90
11284;DHT22;5698;47.332;11.180;2023-04-15T01:00:55;1.00;99.90
11284;DHT22;5698;47.332;11.180;2023-04-15T01:03:22;1.00;99.90
11284;DHT22;5698;47.332;11.180;2023-04-15T01:05:50;0.90;99.90
11284;DHT22;5698;47.332;11.180;2023-04-15T01:08:17;0.90;99.90
11284;DHT22;5698;47.332;11.180;2023-04-15T01:10:44;0.80;99.90
11284;DHT22;5698;47.332;11.180;2023-04-15T01:13:11;0.90;99.90
11284;DHT22;5698;47.332;11.180;2023-04-15T01:15:38;0.90;99.90
11284;DHT22;5698;47.332;11.180;2023-04-15T01:18:07;1.00;99.90
11284;DHT22;5698;47.332;11.180;2023-04-15T01:20:34;1.00;99.90
11284;DHT22;5698;47.332;11.180;2023-04-15T01:23:01;1.00;99.90
11284;DHT22;5698;47.332;11.180;2023-04-15T01:25:32;1.00;99.90
11284;DHT22;5698;47.332;11.180;2023-04-15T01:27:59;1.10;99.90
11284;DHT22;5698;47.332;11.180;2023-04-15T01:30:26;1.10;99.90
11284;DHT22;5698;47.332;11.180;2023-04-15T01:32:53;1.10;99.90
11284;DHT22;5698;47.332;11.180;2023-04-15T01:35:21;1.00;99.90
11284;DHT22;5698;47.332;11.180;2023-04-15T01:37:48;1.00;99.90
11284;DHT22;5698;47.332;11.180;2023-04-15T01:40:16;1.00;99.90
11284;DHT22;5698;47.332;11.180;2023-04-15T01:42:44;0.90;99.90
11284;DHT22;5698;47.332;11.180;2023-04-15T01:45:11;1.10;99.90
11284;DHT22;5698;47.332;11.180;2023-04-15T01:47:39;1.10;99.90
11284;DHT22;5698;47.332;11.180;2023-04-15T01:50:06;1.20;99.90
11284;DHT22;5698;47.332;11.180;2023-04-15T01:52:34;1.00;99.90
11284;DHT22;5698;47.332;11.180;2023-04-15T01:55:01;1.00;99.90
11284;DHT22;5698;47.332;11.180;2023-04-15T01:57:28;1.00;99.90
11284;DHT22;5698;47.332;11.180;2023-04-15T01:59:57;1.00;99.90
11284;DHT22;5698;47.332;11.180;2023-04-15T02:02:24;1.00;99.90
11284;DHT22;5698;47.332;11.180;2023-04-15T02:04:51;1.00;99.90
11284;DHT22;5698;47.332;11.180;2023-04-15T02:07:18;0.90;99.90
11284;DHT22;5698;47.332;11.180;2023-04-15T02:09:45;0.80;99.90
11284;DHT22;5698;47.332;11.180;2023-04-15T02:12:12;0.80;99.90
11284;DHT22;5698;47.332;11.180;2023-04-15T02:14:39;0.80;99.90
11284;DHT22;5698;47.332;11.180;2023-04-15T02:17:07;0.90;99.90
11284;DHT22;5698;47.332;11.180;2023-04-15T02:19:34;0.90;99.90
11284;DHT22;5698;47.332;11.180;2023-04-15T02:22:01;1.00;99.90
11284;DHT22;5698;47.332;11.180;2023-04-15T02:24:29;0.80;99.90
11284;DHT22;5698;47.332;11.180;2023-04-15T02:26:56;0.70;99.90
11284;DHT22;5698;47.332;11.180;2023-04-15T02:29:23;0.70;99.90
11284;DHT22;5698;47.332;11.180;2023-04-15T02:31:50;0.60;99.90
11284;DHT22;5698;47.332;11.180;2023-04-15T02:34:18;0.60;99.90
11284;DHT22;5698;47.332;11.180;2023-04-15T02:36:46;0.50;99.90
11284;DHT22;5698;47.332;11.180;2023-04-15T02:39:14;0.60;99.90
11284;DHT22;5698;47.332;11.180;2023-04-15T02:41:43;0.60;99.90
11284;DHT22;5698;47.332;11.180;2023-04-15T02:44:12;0.60;99.90
11284;DHT22;5698;47.332;11.180;2023-04-15T02:46:39;0.60;99.90
11284;DHT22;5698;47.332;11.180;2023-04-15T02:49:06;0.50;99.90
11284;DHT22;5698;47.332;11.180;2023-04-15T02:51:35;0.50;99.90
11284;DHT22;5698;47.332;11.180;2023-04-15T02:54:02;0.60;99.90
11284;DHT22;5698;47.332;11.180;2023-04-15T02:56:29;0.50;99.90
11284;DHT22;5698;47.332;11.180;2023-04-15T02:58:56;0.60;99.90
11284;DHT22;5698;47.332;11.180;2023-04-15T03:01:23;0.60;99.90
11284;DHT22;5698;47.332;11.180;2023-04-15T03:03:50;0.60;99.90
11284;DHT22;5698;47.332;11.180;2023-04-15T03:06:17;0.50;99.90
11284;DHT22;5698;47.332;11.180;2023-04-15T03:08:46;0.50;99.90
11284;DHT22;5698;47.332;11.180;2023-04-15T03:11:14;0.50;99.90
11284;DHT22;5698;47.332;11.180;2023-04-15T03:13:41;0.40;99.90
11284;DHT22;5698;47.332;11.180;2023-04-15T03:16:08;0.40;99.90
11284;DHT22;5698;47.332;11.180;2023-04-15T03:18:35;0.30;99.90
11284;DHT22;5698;47.332;11.180;2023-04-15T03:21:03;0.40;99.90
11284;DHT22;5698;47.332;11.180;2023-04-15T03:23:31;0.40;99.90
11284;DHT22;5698;47.332;11.180;2023-04-15T03:26:02;0.30;99.90
11284;DHT22;5698;47.332;11.180;2023-04-15T03:28:29;0.40;99.90
11284;DHT22;5698;47.332;11.180;2023-04-15T03:30:57;0.40;99.90
11284;DHT22;5698;47.332;11.180;2023-04-15T03:33:24;0.40;99.90
11284;DHT22;5698;47.332;11.180;2023-04-15T03:35:51;0.40;99.90
11284;DHT22;5698;47.332;11.180;2023-04-15T03:38:18;0.50;99.90
11284;DHT22;5698;47.332;11.180;2023-04-15T03:40:46;0.40;99.90
11284;DHT22;5698;47.332;11.180;2023-04-15T03:43:14;0.40;99.90
11284;DHT22;5698;47.332;11.180;2023-04-15T03:45:41;0.40;99.90
11284;DHT22;5698;47.332;11.180;2023-04-15T03:48:08;0.50;99.90
11284;DHT22;5698;47.332;11.180;2023-04-15T03:50:35;0.50;99.90
11284;DHT22;5698;47.332;11.180;2023-04-15T03:53:02;0.40;99.90
11284;DHT22;5698;47.332;11.180;2023-04-15T03:55:29;0.40;99.90
11284;DHT22;5698;47.332;11.180;2023-04-15T03:57:56;0.40;99.90
11284;DHT22;5698;47.332;11.180;2023-04-15T04:00:24;0.30;99.90
11284;DHT22;5698;47.332;11.180;2023-04-15T04:02:51;0.30;99.90
11284;DHT22;5698;47.332;11.180;2023-04-15T04:05:18;0.30;99.90
11284;DHT22;5698;47.332;11.180;2023-04-15T04:07:45;0.30;99.90
11284;DHT22;5698;47.332;11.180;2023-04-15T04:10:12;0.30;99.90
11284;DHT22;5698;47.332;11.180;2023-04-15T04:12:39;0.20;99.90
11284;DHT22;5698;47.332;11.180;2023-04-15T04:15:07;0.20;99.90
11284;DHT22;5698;47.332;11.180;2023-04-15T04:17:35;0.10;99.90
11284;DHT22;5698;47.332;11.180;2023-04-15T04:20:02;0.00;99.90
11284;DHT22;5698;47.332;11.180;2023-04-15T04:22:30;0.00;99.90
11284;DHT22;5698;47.332;11.180;2023-04-15T04:24:57;0.00;99.90
11284;DHT22;5698;47.332;11.180;2023-04-15T04:27:25;0.00;99.90
11284;DHT22;5698;47.332;11.180;2023-04-15T04:29:52;0.00;99.90
11284;DHT22;5698;47.332;11.180;2023-04-15T04:32:18;0.00;99.90
11284;DHT22;5698;47.332;11.180;2023-04-15T04:34:47;0.10;99.90
11284;DHT22;5698;47.332;11.180;2023-04-15T04:37:14;0.20;99.90
11284;DHT22;5698;47.332;11.180;2023-04-15T04:39:41;0.10;99.90
11284;DHT22;5698;47.332;11.180;2023-04-15T04:42:08;0.10;99.90
11284;DHT22;5698;47.332;11.180;2023-04-15T04:44:35;0.00;99.90
11284;DHT22;5698;47.332;11.180;2023-04-15T04:47:02;0.00;99.90
11284;DHT22;5698;47.332;11.180;2023-04-15T04:49:31;0.10;99.90
11284;DHT22;5698;47.332;11.180;2023-04-15T04:51:59;0.10;99.90
11284;DHT22;5698;47.332;11.180;2023-04-15T04:54:27;0.10;99.90
11284;DHT22;5698;47.332;11.180;2023-04-15T04:56:55;0.10;99.90
11284;DHT22;5698;47.332;11.180;2023-04-15T04:59:23;-0.10;99.90
11284;DHT22;5698;47.332;11.180;2023-04-15T05:01:50;0.00;99.90
11284;DHT22;5698;47.332;11.180;2023-04-15T05:04:17;-0.10;99.90
11284;DHT22;5698;47.332;11.180;2023-04-15T05:06:44;0.00;99.90
11284;DHT22;5698;47.332;11.180;2023-04-15T05:09:12;-0.10;99.90
11284;DHT22;5698;47.332;11.180;2023-04-15T05:11:39;-0.10;99.90
11284;DHT22;5698;47.332;11.180;2023-04-15T05:14:06;-0.10;99.90
11284;DHT22;5698;47.332;11.180;2023-04-15T05:16:33;-0.10;99.90
11284;DHT22;5698;47.332;11.180;2023-04-15T05:19:00;-0.10;99.90
11284;DHT22;5698;47.332;11.180;2023-04-15T05:21:27;0.00;99.90
11284;DHT22;5698;47.332;11.180;2023-04-15T05:23:54;0.00;99.90
11284;DHT22;5698;47.332;11.180;2023-04-15T05:26:22;0.00;99.90
11284;DHT22;5698;47.332;11.180;2023-04-15T05:28:49;0.10;99.90
11284;DHT22;5698;47.332;11.180;2023-04-15T05:31:16;0.20;99.90
11284;DHT22;5698;47.332;11.180;2023-04-15T05:33:43;0.10;99.90
11284;DHT22;5698;47.332;11.180;2023-04-15T05:36:10;0.10;99.90
11284;DHT22;5698;47.332;11.180;2023-04-15T05:38:37;0.10;99.90
11284;DHT22;5698;47.332;11.180;2023-04-15T05:41:04;0.20;99.90
11284;DHT22;5698;47.332;11.180;2023-04-15T05:43:32;0.20;99.90
11284;DHT22;5698;47.332;11.180;2023-04-15T05:45:59;0.20;99.90
11284;DHT22;5698;47.332;11.180;2023-04-15T05:48:26;0.20;99.90
11284;DHT22;5698;47.332;11.180;2023-04-15T05:50:53;0.20;99.90
11284;DHT22;5698;47.332;11.180;2023-04-15T05:53:20;0.30;99.90
11284;DHT22;5698;47.332;11.180;2023-04-15T05:55:47;0.20;99.90
11284;DHT22;5698;47.332;11.180;2023-04-15T05:58:14;0.30;99.90
11284;DHT22;5698;47.332;11.180;2023-04-15T06:00:42;0.40;99.90
11284;DHT22;5698;47.332;11.180;2023-04-15T06:03:10;0.40;99.90
11284;DHT22;5698;47.332;11.180;2023-04-15T06:05:37;0.50;99.90
11284;DHT22;5698;47.332;11.180;2023-04-15T06:08:05;0.50;99.90
11284;DHT22;5698;47.332;11.180;2023-04-15T06:10:34;0.40;99.90
11284;DHT22;5698;47.332;11.180;2023-04-15T06:13:01;0.40;99.90
11284;DHT22;5698;47.332;11.180;2023-04-15T06:15:28;0.50;99.90
11284;DHT22;5698;47.332;11.180;2023-04-15T06:17:56;0.40;99.90
11284;DHT22;5698;47.332;11.180;2023-04-15T06:20:24;0.60;99.90
11284;DHT22;5698;47.332;11.180;2023-04-15T06:22:51;0.60;99.90
11284;DHT22;5698;47.332;11.180;2023-04-15T06:25:18;0.70;99.90
11284;DHT22;5698;47.332;11.180;2023-04-15T06:27:45;0.70;99.90
11284;DHT22;5698;47.332;11.180;2023-04-15T06:30:12;0.80;99.90
11284;DHT22;5698;47.332;11.180;2023-04-15T06:32:39;0.80;99.90
11284;DHT22;5698;47.332;11.180;2023-04-15T06:35:08;0.70;99.90
11284;DHT22;5698;47.332;11.180;2023-04-15T06:37:36;0.70;99.90
11284;DHT22;5698;47.332;11.180;2023-04-15T06:40:04;0.80;99.90
11284;DHT22;5698;47.332;11.180;2023-04-15T06:42:31;0.90;99.90
11284;DHT22;5698;47.332;11.180;2023-04-15T06:44:58;0.80;99.90
11284;DHT22;5698;47.332;11.180;2023-04-15T06:47:25;1.00;99.90
11284;DHT22;5698;47.332;11.180;2023-04-15T06:49:52;0.90;99.90
11284;DHT22;5698;47.332;11.180;2023-04-15T06:52:20;1.10;99.90
11284;DHT22;5698;47.332;11.180;2023-04-15T06:54:47;1.10;99.90
11284;DHT22;5698;47.332;11.180;2023-04-15T06:57:14;1.20;99.90
11284;DHT22;5698;47.332;11.180;2023-04-15T06:59:41;1.40;99.90
11284;DHT22;5698;47.332;11.180;2023-04-15T07:02:11;1.50;99.90
11284;DHT22;5698;47.332;11.180;2023-04-15T07:04:39;1.50;99.90
11284;DHT22;5698;47.332;11.180;2023-04-15T07:07:06;1.50;99.90
11284;DHT22;5698;47.332;11.180;2023-04-15T07:09:34;1.60;99.90
11284;DHT22;5698;47.332;11.180;2023-04-15T07:12:01;1.70;99.90
11284;DHT22;5698;47.332;11.180;2023-04-15T07:14:28;1.70;99.90
11284;DHT22;5698;47.332;11.180;2023-04-15T07:16:55;1.80;99.90
11284;DHT22;5698;47.332;11.180;2023-04-15T07:19:22;1.90;99.90
11284;DHT22;5698;47.332;11.180;2023-04-15T07:21:50;1.90;99.90
11284;DHT22;5698;47.332;11.180;2023-04-15T07:24:17;2.10;99.90
11284;DHT22;5698;47.332;11.180;2023-04-15T07:26:46;2.20;99.90
11284;DHT22;5698;47.332;11.180;2023-04-15T07:29:13;2.30;99.90
11284;DHT22;5698;47.332;11.180;2023-04-15T07:31:40;2.40;99.90
11284;DHT22;5698;47.332;11.180;2023-04-15T07:34:07;2.60;99.90
11284;DHT22;5698;47.332;11.180;2023-04-15T07:36:35;2.60;99.90
11284;DHT22;5698;47.332;11.180;2023-04-15T07:39:02;2.60;99.90
11284;DHT22;5698;47.332;11.180;2023-04-15T07:41:30;2.60;99.90
11284;DHT22;5698;47.332;11.180;2023-04-15T07:43:59;2.70;99.90
11284;DHT22;5698;47.332;11.180;2023-04-15T07:46:25;2.80;99.90
11284;DHT22;5698;47.332;11.180;2023-04-15T07:48:52;3.00;99.90
11284;DHT22;5698;47.332;11.180;2023-04-15T07:51:20;3.00;99.90
11284;DHT22;5698;47.332;11.180;2023-04-15T07:53:48;3.20;99.90
11284;DHT22;5698;47.332;11.180;2023-04-15T07:56:16;3.40;99.90
11284;DHT22;5698;47.332;11.180;2023-04-15T07:58:43;3.40;99.90
11284;DHT22;5698;47.332;11.180;2023-04-15T08:01:11;3.60;99.90
11284;DHT22;5698;47.332;11.180;2023-04-15T08:03:38;3.90;99.90
11284;DHT22;5698;47.332;11.180;2023-04-15T08:06:05;4.10;99.90
11284;DHT22;5698;47.332;11.180;2023-04-15T08:08:32;4.20;99.90
11284;DHT22;5698;47.332;11.180;2023-04-15T08:10:59;4.40;99.90
11284;DHT22;5698;47.332;11.180;2023-04-15T08:13:26;4.60;99.90
11284;DHT22;5698;47.332;11.180;2023-04-15T08:16:17;4.50;99.90
11284;DHT22;5698;47.332;11.180;2023-04-15T08:18:44;4.60;99.90
11284;DHT22;5698;47.332;11.180;2023-04-15T08:21:11;4.70;99.90
11284;DHT22;5698;47.332;11.180;2023-04-15T08:23:39;4.80;99.90
11284;DHT22;5698;47.332;11.180;2023-04-15T08:26:06;4.90;99.90
11284;DHT22;5698;47.332;11.180;2023-04-15T08:28:33;5.10;99.90
11284;DHT22;5698;47.332;11.180;2023-04-15T08:31:00;5.30;99.90
11284;DHT22;5698;47.332;11.180;2023-04-15T08:33:28;5.50;99.90
11284;DHT22;5698;47.332;11.180;2023-04-15T08:35:55;5.80;99.90
11284;DHT22;5698;47.332;11.180;2023-04-15T08:38:23;6.20;99.90
11284;DHT22;5698;47.332;11.180;2023-04-15T08:40:50;6.70;99.90
11284;DHT22;5698;47.332;11.180;2023-04-15T08:43:21;6.80;99.90
11284;DHT22;5698;47.332;11.180;2023-04-15T08:45:49;7.00;99.90
11284;DHT22;5698;47.332;11.180;2023-04-15T08:48:17;7.30;99.90
11284;DHT22;5698;47.332;11.180;2023-04-15T08:50:47;7.60;99.90
11284;DHT22;5698;47.332;11.180;2023-04-15T08:53:14;8.00;99.90
11284;DHT22;5698;47.332;11.180;2023-04-15T08:55:43;7.90;99.90
11284;DHT22;5698;47.332;11.180;2023-04-15T08:58:11;7.80;99.90
11284;DHT22;5698;47.332;11.180;2023-04-15T09:00:39;7.80;99.90
11284;DHT22;5698;47.332;11.180;2023-04-15T09:03:06;8.10;99.90
11284;DHT22;5698;47.332;11.180;2023-04-15T09:05:34;8.40;99.90
11284;DHT22;5698;47.332;11.180;2023-04-15T09:08:03;8.60;99.90
11284;DHT22;5698;47.332;11.180;2023-04-15T09:10:32;9.00;99.90
11284;DHT22;5698;47.332;11.180;2023-04-15T09:12:59;9.20;99.90
11284;DHT22;5698;47.332;11.180;2023-04-15T09:15:27;9.10;99.90
11284;DHT22;5698;47.332;11.180;2023-04-15T09:17:55;9.10;99.90
11284;DHT22;5698;47.332;11.180;2023-04-15T09:20:22;9.20;99.90
11284;DHT22;5698;47.332;11.180;2023-04-15T09:22:50;9.50;99.90
11284;DHT22;5698;47.332;11.180;2023-04-15T09:25:28;9.70;99.90
11284;DHT22;5698;47.332;11.180;2023-04-15T09:27:57;10.10;99.90
11284;DHT22;5698;47.332;11.180;2023-04-15T09:30:24;10.30;99.90
11284;DHT22;5698;47.332;11.180;2023-04-15T09:32:52;10.60;99.90
11284;DHT22;5698;47.332;11.180;2023-04-15T09:35:20;10.70;98.70
11284;DHT22;5698;47.332;11.180;2023-04-15T09:37:47;10.90;99.00
11284;DHT22;5698;47.332;11.180;2023-04-15T09:40:31;10.50;96.50
11284;DHT22;5698;47.332;11.180;2023-04-15T09:42:59;10.60;97.60
11284;DHT22;5698;47.332;11.180;2023-04-15T09:45:26;10.40;95.80
11284;DHT22;5698;47.332;11.180;2023-04-15T09:47:54;10.70;97.70
11284;DHT22;5698;47.332;11.180;2023-04-15T09:50:22;11.10;96.50
11284;DHT22;5698;47.332;11.180;2023-04-15T09:52:52;11.50;96.80
11284;DHT22;5698;47.332;11.180;2023-04-15T09:55:19;11.80;95.00
11284;DHT22;5698;47.332;11.180;2023-04-15T09:57:48;12.00;94.70
11284;DHT22;5698;47.332;11.180;2023-04-15T10:00:15;11.20;96.10
11284;DHT22;5698;47.332;11.180;2023-04-15T10:02:42;11.50;96.30
11284;DHT22;5698;47.332;11.180;2023-04-15T10:05:11;11.80;94.30
11284;DHT22;5698;47.332;11.180;2023-04-15T10:07:39;12.00;94.40
11284;DHT22;5698;47.332;11.180;2023-04-15T10:10:08;12.20;94.60
11284;DHT22;5698;47.332;11.180;2023-04-15T10:12:36;12.20;93.70
11284;DHT22;5698;47.332;11.180;2023-04-15T10:15:06;12.30;93.80
11284;DHT22;5698;47.332;11.180;2023-04-15T10:17:37;12.40;93.80
11284;DHT22;5698;47.332;11.180;2023-04-15T10:20:05;12.30;93.20
11284;DHT22;5698;47.332;11.180;2023-04-15T10:22:34;12.20;93.70
11284;DHT22;5698;47.332;11.180;2023-04-15T10:25:02;12.00;92.80
11284;DHT22;5698;47.332;11.180;2023-04-15T10:27:29;11.90;92.70
11284;DHT22;5698;47.332;11.180;2023-04-15T10:29:56;11.80;93.00
11284;DHT22;5698;47.332;11.180;2023-04-15T10:32:27;11.70;93.60
11284;DHT22;5698;47.332;11.180;2023-04-15T10:34:55;11.60;93.60
11284;DHT22;5698;47.332;11.180;2023-04-15T10:37:33;11.40;94.00
11284;DHT22;5698;47.332;11.180;2023-04-15T10:40:00;11.20;93.20
11284;DHT22;5698;47.332;11.180;2023-04-15T10:42:47;11.00;93.70
11284;DHT22;5698;47.332;11.180;2023-04-15T10:45:16;10.80;94.00
11284;DHT22;5698;47.332;11.180;2023-04-15T10:47:45;10.70;93.70
11284;DHT22;5698;47.332;11.180;2023-04-15T10:50:12;10.50;94.50
11284;DHT22;5698;47.332;11.180;2023-04-15T10:52:40;10.30;94.60
11284;DHT22;5698;47.332;11.180;2023-04-15T10:55:12;10.00;94.60
11284;DHT22;5698;47.332;11.180;2023-04-15T10:57:41;9.90;94.80
11284;DHT22;5698;47.332;11.180;2023-04-15T11:00:12;9.90;95.60
11284;DHT22;5698;47.332;11.180;2023-04-15T11:02:46;9.70;94.90
11284;DHT22;5698;47.332;11.180;2023-04-15T11:05:14;9.70;96.10
11284;DHT22;5698;47.332;11.180;2023-04-15T11:07:49;9.60;96.30
11284;DHT22;5698;47.332;11.180;2023-04-15T11:10:51;9.50;96.00
11284;DHT22;5698;47.332;11.180;2023-04-15T11:13:25;9.40;96.70
11284;DHT22;5698;47.332;11.180;2023-04-15T11:15:58;9.30;96.90
11284;DHT22;5698;47.332;11.180;2023-04-15T11:18:32;9.30;97.00
11284;DHT22;5698;47.332;11.180;2023-04-15T11:21:01;9.20;96.80
11284;DHT22;5698;47.332;11.180;2023-04-15T11:23:34;9.10;96.90
11284;DHT22;5698;47.332;11.180;2023-04-15T11:26:03;9.10;96.90
11284;DHT22;5698;47.332;11.180;2023-04-15T11:28:34;9.10;96.60
11284;DHT22;5698;47.332;11.180;2023-04-15T11:31:09;9.10;96.50
11284;DHT22;5698;47.332;11.180;2023-04-15T11:33:43;9.00;95.60
11284;DHT22;5698;47.332;11.180;2023-04-15T11:36:10;9.10;96.20
11284;DHT22;5698;47.332;11.180;2023-04-15T11:38:41;9.00;95.50
11284;DHT22;5698;47.332;11.180;2023-04-15T11:41:09;9.00;95.50
11284;DHT22;5698;47.332;11.180;2023-04-15T11:43:35;9.00;95.40
11284;DHT22;5698;47.332;11.180;2023-04-15T11:46:02;9.00;95.50
11284;DHT22;5698;47.332;11.180;2023-04-15T11:48:32;8.80;95.40
11284;DHT22;5698;47.332;11.180;2023-04-15T11:51:02;8.50;95.70
11284;DHT22;5698;47.332;11.180;2023-04-15T11:53:36;8.20;95.90
11284;DHT22;5698;47.332;11.180;2023-04-15T11:56:05;8.00;95.90
11284;DHT22;5698;47.332;11.180;2023-04-15T11:58:33;7.70;96.70
11284;DHT22;5698;47.332;11.180;2023-04-15T12:01:02;7.70;96.90
11284;DHT22;5698;47.332;11.180;2023-04-15T12:03:30;7.60;96.80
11284;DHT22;5698;47.332;11.180;2023-04-15T12:06:04;7.60;96.80
11284;DHT22;5698;47.332;11.180;2023-04-15T12:09:08;7.50;97.50
11284;DHT22;5698;47.332;11.180;2023-04-15T12:11:38;7.50;98.60
11284;DHT22;5698;47.332;11.180;2023-04-15T12:14:10;7.60;99.00
11284;DHT22;5698;47.332;11.180;2023-04-15T12:16:41;7.70;98.80
11284;DHT22;5698;47.332;11.180;2023-04-15T12:19:10;7.80;99.50
11284;DHT22;5698;47.332;11.180;2023-04-15T12:21:40;7.80;97.80
11284;DHT22;5698;47.332;11.180;2023-04-15T12:24:10;7.80;97.60
11284;DHT22;5698;47.332;11.180;2023-04-15T12:26:43;7.80;97.60
11284;DHT22;5698;47.332;11.180;2023-04-15T12:29:11;7.60;97.60
11284;DHT22;5698;47.332;11.180;2023-04-15T12:31:46;7.60;98.30
11284;DHT22;5698;47.332;11.180;2023-04-15T12:34:14;7.50;98.10
11284;DHT22;5698;47.332;11.180;2023-04-15T12:36:42;7.40;98.00
11284;DHT22;5698;47.332;11.180;2023-04-15T12:39:09;7.30;98.50
11284;DHT22;5698;47.332;11.180;2023-04-15T12:41:36;7.00;99.20
11284;DHT22;5698;47.332;11.180;2023-04-15T12:44:03;6.80;99.60
11284;DHT22;5698;47.332;11.180;2023-04-15T12:46:31;6.80;99.60
11284;DHT22;5698;47.332;11.180;2023-04-15T12:48:58;6.70;99.90
11284;DHT22;5698;47.332;11.180;2023-04-15T12:51:25;6.50;99.90
11284;DHT22;5698;47.332;11.180;2023-04-15T12:53:54;6.50;99.90
11284;DHT22;5698;47.332;11.180;2023-04-15T12:56:21;6.40;99.90
11284;DHT22;5698;47.332;11.180;2023-04-15T12:58:48;6.30;99.90
11284;DHT22;5698;47.332;11.180;2023-04-15T13:01:16;6.10;99.90
11284;DHT22;5698;47.332;11.180;2023-04-15T13:03:43;5.80;99.90
11284;DHT22;5698;47.332;11.180;2023-04-15T13:06:10;5.40;99.90
11284;DHT22;5698;47.332;11.180;2023-04-15T13:08:37;5.00;99.90
11284;DHT22;5698;47.332;11.180;2023-04-15T13:11:05;5.10;99.90
11284;DHT22;5698;47.332;11.180;2023-04-15T13:13:32;5.30;99.90
11284;DHT22;5698;47.332;11.180;2023-04-15T13:15:59;5.50;99.90
11284;DHT22;5698;47.332;11.180;2023-04-15T13:18:26;5.60;99.90
11284;DHT22;5698;47.332;11.180;2023-04-15T13:20:55;5.70;99.90
11284;DHT22;5698;47.332;11.180;2023-04-15T13:23:22;5.80;99.90
11284;DHT22;5698;47.332;11.180;2023-04-15T13:25:49;5.80;99.90
11284;DHT22;5698;47.332;11.180;2023-04-15T13:28:18;5.90;99.90
11284;DHT22;5698;47.332;11.180;2023-04-15T13:30:45;5.90;99.90
11284;DHT22;5698;47.332;11.180;2023-04-15T13:33:13;6.00;99.90
11284;DHT22;5698;47.332;11.180;2023-04-15T13:35:40;6.10;99.90
11284;DHT22;5698;47.332;11.180;2023-04-15T13:38:07;6.40;99.90
11284;DHT22;5698;47.332;11.180;2023-04-15T13:40:34;6.70;99.90
11284;DHT22;5698;47.332;11.180;2023-04-15T13:43:01;7.10;99.90
11284;DHT22;5698;47.332;11.180;2023-04-15T13:45:30;7.30;99.90
11284;DHT22;5698;47.332;11.180;2023-04-15T13:47:57;7.40;99.90
11284;DHT22;5698;47.332;11.180;2023-04-15T13:50:24;7.50;99.90
11284;DHT22;5698;47.332;11.180;2023-04-15T13:52:51;7.60;99.90
11284;DHT22;5698;47.332;11.180;2023-04-15T13:55:18;7.60;99.90
11284;DHT22;5698;47.332;11.180;2023-04-15T13:57:45;7.70;99.90
11284;DHT22;5698;47.332;11.180;2023-04-15T14:00:13;7.70;99.90
11284;DHT22;5698;47.332;11.180;2023-04-15T14:02:41;7.70;99.60
11284;DHT22;5698;47.332;11.180;2023-04-15T14:05:09;7.80;99.70
11284;DHT22;5698;47.332;11.180;2023-04-15T14:07:36;7.70;99.30
11284;DHT22;5698;47.332;11.180;2023-04-15T14:10:04;7.70;99.50
11284;DHT22;5698;47.332;11.180;2023-04-15T14:12:31;7.70;99.90
11284;DHT22;5698;47.332;11.180;2023-04-15T14:14:58;7.70;99.90
11284;DHT22;5698;47.332;11.180;2023-04-15T14:17:26;7.60;99.90
11284;DHT22;5698;47.332;11.180;2023-04-15T14:19:55;7.40;99.90
11284;DHT22;5698;47.332;11.180;2023-04-15T14:22:22;7.30;99.90
11284;DHT22;5698;47.332;11.180;2023-04-15T14:24:49;7.20;99.90
11284;DHT22;5698;47.332;11.180;2023-04-15T14:27:17;7.10;99.90
11284;DHT22;5698;47.332;11.180;2023-04-15T14:29:44;6.60;99.90
11284;DHT22;5698;47.332;11.180;2023-04-15T14:32:11;6.40;99.90
11284;DHT22;5698;47.332;11.180;2023-04-15T14:34:38;6.00;99.90
11284;DHT22;5698;47.332;11.180;2023-04-15T14:37:07;5.90;99.90
11284;DHT22;5698;47.332;11.180;2023-04-15T14:39:33;6.00;99.90
11284;DHT22;5698;47.332;11.180;2023-04-15T14:42:00;6.00;99.90
11284;DHT22;5698;47.332;11.180;2023-04-15T14:44:27;6.10;99.90
11284;DHT22;5698;47.332;11.180;2023-04-15T14:46:55;6.00;99.90
11284;DHT22;5698;47.332;11.180;2023-04-15T14:49:22;5.70;99.90
11284;DHT22;5698;47.332;11.180;2023-04-15T14:51:49;5.40;99.90
11284;DHT22;5698;47.332;11.180;2023-04-15T14:54:17;5.20;99.90
11284;DHT22;5698;47.332;11.180;2023-04-15T14:56:44;4.90;99.90
11284;DHT22;5698;47.332;11.180;2023-04-15T14:59:11;5.00;99.90
11284;DHT22;5698;47.332;11.180;2023-04-15T15:01:38;5.10;99.90
11284;DHT22;5698;47.332;11.180;2023-04-15T15:04:05;5.00;99.90
11284;DHT22;5698;47.332;11.180;2023-04-15T15:06:33;4.90;99.90
11284;DHT22;5698;47.332;11.180;2023-04-15T15:09:00;4.80;99.90
11284;DHT22;5698;47.332;11.180;2023-04-15T15:11:29;4.80;99.90
11284;DHT22;5698;47.332;11.180;2023-04-15T15:13:56;4.80;99.90
11284;DHT22;5698;47.332;11.180;2023-04-15T15:16:23;4.50;99.90
11284;DHT22;5698;47.332;11.180;2023-04-15T15:18:50;4.50;99.90
11284;DHT22;5698;47.332;11.180;2023-04-15T15:21:17;4.40;99.90
11284;DHT22;5698;47.332;11.180;2023-04-15T15:23:44;4.30;99.90
11284;DHT22;5698;47.332;11.180;2023-04-15T15:26:12;4.30;99.90
11284;DHT22;5698;47.332;11.180;2023-04-15T15:28:41;4.30;99.90
11284;DHT22;5698;47.332;11.180;2023-04-15T15:31:09;4.30;99.90
11284;DHT22;5698;47.332;11.180;2023-04-15T15:33:36;4.20;99.90
11284;DHT22;5698;47.332;11.180;2023-04-15T15:36:03;4.10;99.90
11284;DHT22;5698;47.332;11.180;2023-04-15T15:38:30;3.90;99.90
11284;DHT22;5698;47.332;11.180;2023-04-15T15:40:57;3.90;99.90
11284;DHT22;5698;47.332;11.180;2023-04-15T15:43:24;3.90;99.90
11284;DHT22;5698;47.332;11.180;2023-04-15T15:45:53;3.80;99.90
11284;DHT22;5698;47.332;11.180;2023-04-15T15:48:21;3.80;99.90
11284;DHT22;5698;47.332;11.180;2023-04-15T15:50:48;3.60;99.90